createdAt,value
2023-05-15T00:01:59.740Z,99253.01
2023-05-15T00:04:27.053Z,99253.52
2023-05-15T00:06:53.933Z,99253.05
2023-05-15T00:09:23.098Z,99253.69
2023-05-15T00:11:49.996Z,99250.15
2023-05-15T00:14:16.663Z,99253.19
2023-05-15T00:16:43.487Z,99250.66
2023-05-15T00:19:10.604Z,99254.57
2023-05-15T00:21:37.541Z,99252.13
2023-05-15T00:24:04.314Z,99253.90
2023-05-15T00:26:31.067Z,99253.39
2023-05-15T00:28:57.774Z,99250.42
2023-05-15T00:31:24.531Z,99246.96
2023-05-15T00:33:51.778Z,99243.52
2023-05-15T00:36:18.481Z,99242.98
2023-05-15T00:38:45.171Z,99243.46
2023-05-15T00:41:11.949Z,99244.33
2023-05-15T00:43:39.182Z,99241.92
2023-05-15T00:46:06.982Z,99244.98
2023-05-15T00:48:33.769Z,99240.71
2023-05-15T00:51:00.621Z,99234.61
2023-05-15T00:53:27.956Z,99233.60
2023-05-15T00:55:56.609Z,99230.79
2023-05-15T00:58:23.651Z,99233.41
2023-05-15T01:00:50.971Z,99231.79
2023-05-15T01:03:17.866Z,99234.75
2023-05-15T01:05:45.140Z,99231.61
2023-05-15T01:08:30.455Z,99228.86
2023-05-15T01:10:57.127Z,99226.40
2023-05-15T01:13:25.371Z,99227.53
2023-05-15T01:15:52.057Z,99224.91
2023-05-15T01:18:20.188Z,99222.93
2023-05-15T01:21:04.966Z,99226.69
2023-05-15T01:23:56.660Z,99223.33
2023-05-15T01:26:28.990Z,99227.02
2023-05-15T01:29:01.622Z,99225.61
2023-05-15T01:31:28.978Z,99222.49
2023-05-15T01:33:56.392Z,99219.05
2023-05-15T01:36:45.032Z,99216.06
2023-05-15T01:39:11.694Z,99209.39
2023-05-15T01:41:58.640Z,99212.52
2023-05-15T01:44:29.351Z,99211.15
2023-05-15T01:46:58.055Z,99208.45
2023-05-15T01:49:28.655Z,99209.46
2023-05-15T01:51:59.837Z,99212.09
2023-05-15T01:54:26.717Z,99213.13
2023-05-15T01:56:53.422Z,99211.34
2023-05-15T01:59:20.248Z,99214.17
2023-05-15T02:01:47.019Z,99208.70
2023-05-15T02:04:13.878Z,99204.70
2023-05-15T02:06:40.878Z,99204.01
2023-05-15T02:09:08.569Z,99200.60
2023-05-15T02:11:35.499Z,99197.98
2023-05-15T02:14:03.374Z,99191.59
2023-05-15T02:16:30.102Z,99192.36
2023-05-15T02:18:57.013Z,99186.95
2023-05-15T02:21:23.781Z,99183.39
2023-05-15T02:23:51.044Z,99185.13
2023-05-15T02:26:33.125Z,99188.67
2023-05-15T02:29:21.996Z,99181.52
2023-05-15T02:32:10.387Z,99178.67
2023-05-15T02:35:01.810Z,99180.59
2023-05-15T02:37:30.861Z,99181.21
2023-05-15T02:39:59.743Z,99177.70
2023-05-15T02:42:26.921Z,99179.20
2023-05-15T02:44:54.326Z,99178.05
2023-05-15T02:47:21.932Z,99178.23
2023-05-15T02:49:48.922Z,99178.85
2023-05-15T02:52:15.619Z,99181.50
2023-05-15T02:54:42.457Z,99183.94
2023-05-15T02:57:09.231Z,99180.27
2023-05-15T02:59:36.253Z,99186.70
2023-05-15T03:02:03.699Z,99181.02
2023-05-15T03:04:31.037Z,99182.34
2023-05-15T03:06:57.858Z,99180.00
2023-05-15T03:09:25.462Z,99180.88
2023-05-15T03:11:52.280Z,99172.95
2023-05-15T03:14:19.048Z,99168.61
2023-05-15T03:16:45.863Z,99168.83
2023-05-15T03:19:12.691Z,99165.70
2023-05-15T03:21:39.493Z,99160.90
2023-05-15T03:24:06.603Z,99158.86
2023-05-15T03:26:33.334Z,99156.25
2023-05-15T03:29:00.989Z,99153.33
2023-05-15T03:31:27.794Z,99155.92
2023-05-15T03:33:54.532Z,99152.69
2023-05-15T03:36:22.585Z,99152.80
2023-05-15T03:38:49.638Z,99148.58
2023-05-15T03:41:16.333Z,99150.14
2023-05-15T03:43:43.085Z,99150.01
2023-05-15T03:46:09.761Z,99147.27
2023-05-15T03:48:40.217Z,99145.14
2023-05-15T03:51:07.024Z,99141.66
2023-05-15T03:53:33.697Z,99138.42
2023-05-15T03:56:00.449Z,99139.13
2023-05-15T03:58:27.226Z,99139.25
2023-05-15T04:00:54.315Z,99139.77
2023-05-15T04:03:21.088Z,99139.15
2023-05-15T04:05:50.049Z,99138.50
2023-05-15T04:08:16.965Z,99136.61
2023-05-15T04:10:43.657Z,99130.34
2023-05-15T04:13:10.387Z,99132.30
2023-05-15T04:15:37.261Z,99127.15
2023-05-15T04:18:04.008Z,99125.63
2023-05-15T04:20:31.077Z,99127.64
2023-05-15T04:22:57.751Z,99124.20
2023-05-15T04:25:25.003Z,99123.70
2023-05-15T04:27:51.965Z,99120.30
2023-05-15T04:30:18.836Z,99116.21
2023-05-15T04:32:45.886Z,99117.66
2023-05-15T04:35:13.712Z,99114.58
2023-05-15T04:37:41.304Z,99107.73
2023-05-15T04:40:09.024Z,99103.20
2023-05-15T04:42:38.387Z,99100.84
2023-05-15T04:45:06.425Z,99100.19
2023-05-15T04:47:33.208Z,99098.60
2023-05-15T04:49:59.959Z,99095.61
2023-05-15T04:52:26.793Z,99088.26
2023-05-15T04:54:55.572Z,99087.12
2023-05-15T04:57:22.674Z,99086.09
2023-05-15T04:59:49.578Z,99086.84
2023-05-15T05:02:16.376Z,99083.73
2023-05-15T05:04:43.812Z,99080.95
2023-05-15T05:07:10.583Z,99075.65
2023-05-15T05:09:39.163Z,99067.75
2023-05-15T05:12:07.617Z,99063.38
2023-05-15T05:14:34.398Z,99067.30
2023-05-15T05:17:01.160Z,99062.92
2023-05-15T05:19:31.015Z,99060.45
2023-05-15T05:22:01.322Z,99057.59
2023-05-15T05:24:28.554Z,99053.45
2023-05-15T05:26:58.172Z,99051.55
2023-05-15T05:29:25.233Z,99051.92
2023-05-15T05:31:52.338Z,99054.52
2023-05-15T05:34:19.699Z,99053.35
2023-05-15T05:36:46.588Z,99050.31
2023-05-15T05:39:13.344Z,99048.48
2023-05-15T05:41:40.252Z,99052.83
2023-05-15T05:44:06.993Z,99051.61
2023-05-15T05:46:33.820Z,99044.55
2023-05-15T05:49:00.616Z,99036.34
2023-05-15T05:51:27.337Z,99035.84
2023-05-15T05:53:54.020Z,99031.52
2023-05-15T05:56:21.768Z,99032.27
2023-05-15T05:58:48.509Z,99040.86
2023-05-15T06:01:15.212Z,99042.98
2023-05-15T06:03:43.169Z,99036.47
2023-05-15T06:06:09.997Z,99021.79
2023-05-15T06:08:36.791Z,99032.29
2023-05-15T06:11:03.870Z,99032.14
2023-05-15T06:13:30.547Z,99033.25
2023-05-15T06:15:57.313Z,99033.11
2023-05-15T06:18:24.458Z,99023.13
2023-05-15T06:20:51.828Z,99025.36
2023-05-15T06:23:18.550Z,99026.83
2023-05-15T06:25:45.329Z,99026.55
2023-05-15T06:28:12.023Z,99022.63
2023-05-15T06:30:38.735Z,99021.77
2023-05-15T06:33:05.786Z,99021.97
2023-05-15T06:35:32.558Z,99017.73
2023-05-15T06:37:59.236Z,99016.11
2023-05-15T06:40:26.293Z,99008.95
2023-05-15T06:42:53.261Z,99004.58
2023-05-15T06:45:19.997Z,99002.66
2023-05-15T06:47:46.785Z,99002.79
2023-05-15T06:50:13.533Z,99000.83
2023-05-15T06:52:40.385Z,98996.75
2023-05-15T06:55:07.368Z,99008.46
2023-05-15T06:57:34.428Z,98991.26
2023-05-15T07:00:01.160Z,98993.44
2023-05-15T07:02:27.953Z,99005.70
2023-05-15T07:04:54.801Z,99012.80
2023-05-15T07:07:21.522Z,98998.90
2023-05-15T07:09:48.654Z,98992.28
2023-05-15T07:12:15.803Z,99004.98
2023-05-15T07:14:42.618Z,98989.30
2023-05-15T07:17:09.514Z,98988.23
2023-05-15T07:19:36.409Z,98992.65
2023-05-15T07:22:03.639Z,98991.35
2023-05-15T07:24:30.642Z,98988.67
2023-05-15T07:26:58.856Z,98997.06
2023-05-15T07:29:26.196Z,98989.31
2023-05-15T07:31:53.401Z,98970.20
2023-05-15T07:34:20.232Z,98981.06
2023-05-15T07:36:46.925Z,98993.04
2023-05-15T07:39:13.931Z,98981.61
2023-05-15T07:41:40.876Z,98971.58
2023-05-15T07:44:07.743Z,98980.27
2023-05-15T07:46:35.082Z,98980.91
2023-05-15T07:49:02.037Z,98995.39
2023-05-15T07:51:28.866Z,98969.71
2023-05-15T07:53:55.793Z,98978.70
2023-05-15T07:56:22.497Z,98988.05
2023-05-15T07:58:49.266Z,98973.11
2023-05-15T08:01:16.146Z,98998.95
2023-05-15T08:03:42.952Z,98973.95
2023-05-15T08:06:09.835Z,99004.80
2023-05-15T08:08:36.610Z,98983.91
2023-05-15T08:11:03.337Z,99005.11
2023-05-15T08:13:30.050Z,99001.20
2023-05-15T08:15:57.122Z,99015.41
2023-05-15T08:18:23.879Z,98972.50
2023-05-15T08:20:50.612Z,98974.80
2023-05-15T08:23:17.322Z,98980.59
2023-05-15T08:25:44.120Z,98986.85
2023-05-15T08:28:11.085Z,98980.08
2023-05-15T08:30:37.983Z,98984.37
2023-05-15T08:33:04.884Z,98992.05
2023-05-15T08:35:31.677Z,98983.39
2023-05-15T08:37:59.099Z,98986.68
2023-05-15T08:43:03.892Z,98965.55
2023-05-15T08:45:30.755Z,98957.91
2023-05-15T08:47:57.658Z,98967.33
2023-05-15T08:50:24.445Z,98960.39
2023-05-15T08:52:51.548Z,98939.35
2023-05-15T08:55:18.268Z,98939.52
2023-05-15T08:57:45.234Z,98952.10
2023-05-15T09:00:14.901Z,98949.58
2023-05-15T09:02:42.825Z,98943.86
2023-05-15T09:05:09.993Z,98948.50
2023-05-15T09:07:38.444Z,98946.08
2023-05-15T09:10:06.207Z,98959.55
2023-05-15T09:12:33.670Z,98956.74
2023-05-15T09:15:13.672Z,98966.02
2023-05-15T09:17:40.528Z,98951.02
2023-05-15T09:20:08.560Z,98920.73
2023-05-15T09:22:36.043Z,98920.17
2023-05-15T09:25:04.286Z,98925.70
2023-05-15T09:27:31.060Z,98923.52
2023-05-15T09:30:08.416Z,98942.98
2023-05-15T09:32:37.300Z,98939.01
2023-05-15T09:35:04.640Z,98912.44
2023-05-15T09:37:32.541Z,98894.45
2023-05-15T09:40:10.037Z,98887.09
2023-05-15T09:42:36.918Z,98899.04
2023-05-15T09:45:04.009Z,98897.33
2023-05-15T09:47:30.986Z,98911.59
2023-05-15T09:49:57.974Z,98901.81
2023-05-15T09:52:24.758Z,98905.73
2023-05-15T09:54:51.522Z,98880.40
2023-05-15T09:57:21.391Z,98864.59
2023-05-15T09:59:48.413Z,98864.70
2023-05-15T10:02:32.196Z,98877.43
2023-05-15T10:04:59.096Z,98856.84
2023-05-15T10:07:28.255Z,98869.73
2023-05-15T10:09:55.512Z,98862.41
2023-05-15T10:12:22.592Z,98853.90
2023-05-15T10:14:49.515Z,98831.26
2023-05-15T10:17:16.299Z,98833.71
2023-05-15T10:19:56.770Z,98815.90
2023-05-15T10:22:24.849Z,98851.02
2023-05-15T10:25:09.029Z,98833.62
2023-05-15T10:27:36.662Z,98840.14
2023-05-15T10:30:04.096Z,98844.79
2023-05-15T10:32:30.874Z,98874.77
2023-05-15T10:34:57.755Z,98866.20
2023-05-15T10:37:24.496Z,98895.80
2023-05-15T10:39:51.221Z,98874.25
2023-05-15T10:42:18.222Z,98866.86
2023-05-15T10:44:44.990Z,98859.90
2023-05-15T10:47:11.844Z,98870.13
2023-05-15T10:49:39.025Z,98861.16
2023-05-15T10:52:06.217Z,98854.26
2023-05-15T10:54:33.263Z,98842.68
2023-05-15T10:57:00.335Z,98877.52
2023-05-15T10:59:34.794Z,98896.07
2023-05-15T11:02:19.329Z,98863.66
2023-05-15T11:04:46.094Z,98857.45
2023-05-15T11:07:14.116Z,98862.13
2023-05-15T11:09:40.941Z,98844.30
2023-05-15T11:12:09.120Z,98854.30
2023-05-15T11:14:40.188Z,98825.95
2023-05-15T11:17:16.530Z,98842.08
2023-05-15T11:19:49.391Z,98839.52
2023-05-15T11:22:21.044Z,98858.76
2023-05-15T11:24:54.005Z,98850.83
2023-05-15T11:27:25.127Z,98841.91
2023-05-15T11:30:23.363Z,98844.70
2023-05-15T11:32:59.417Z,98839.64
2023-05-15T11:35:30.088Z,98864.90
2023-05-15T11:38:03.489Z,98844.85
2023-05-15T11:40:31.614Z,98839.96
2023-05-15T11:43:05.765Z,98851.64
2023-05-15T11:45:34.644Z,98841.59
2023-05-15T11:48:02.551Z,98853.33
2023-05-15T11:50:30.808Z,98856.15
2023-05-15T11:52:57.643Z,98872.94
2023-05-15T11:55:24.397Z,98832.58
2023-05-15T11:57:51.181Z,98835.34
2023-05-15T12:00:18.014Z,98822.62
2023-05-15T12:02:44.811Z,98814.76
2023-05-15T12:05:12.088Z,98817.08
2023-05-15T12:07:40.762Z,98791.61
2023-05-15T12:10:09.384Z,98799.39
2023-05-15T12:12:37.073Z,98785.81
2023-05-15T12:15:05.679Z,98780.60
2023-05-15T12:17:33.274Z,98772.39
2023-05-15T12:20:00.153Z,98768.11
2023-05-15T12:22:26.836Z,98793.23
2023-05-15T12:24:53.567Z,98789.93
2023-05-15T12:27:20.368Z,98785.42
2023-05-15T12:29:47.020Z,98762.81
2023-05-15T12:32:13.850Z,98768.44
2023-05-15T12:34:41.338Z,98764.36
2023-05-15T12:37:12.606Z,98769.39
2023-05-15T12:40:00.685Z,98763.64
2023-05-15T12:42:27.482Z,98768.30
2023-05-15T12:44:54.901Z,98761.99
2023-05-15T12:47:25.688Z,98768.83
2023-05-15T12:49:57.180Z,98780.86
2023-05-15T12:52:24.148Z,98768.70
2023-05-15T12:54:50.898Z,98764.63
2023-05-15T12:57:17.575Z,98776.08
2023-05-15T12:59:44.331Z,98754.68
2023-05-15T13:02:11.572Z,98760.58
2023-05-15T13:04:38.339Z,98769.08
2023-05-15T13:07:05.321Z,98747.55
2023-05-15T13:09:33.353Z,98756.05
2023-05-15T13:12:02.531Z,98755.20
2023-05-15T13:14:32.504Z,98767.09
2023-05-15T13:17:01.183Z,98772.51
2023-05-15T13:19:27.842Z,98765.02
2023-05-15T13:21:54.540Z,98765.71
2023-05-15T13:24:21.304Z,98761.58
2023-05-15T13:26:48.019Z,98763.16
2023-05-15T13:29:14.695Z,98750.52
2023-05-15T13:31:41.544Z,98758.38
2023-05-15T13:34:08.250Z,98770.27
2023-05-15T13:36:34.994Z,98768.36
2023-05-15T13:39:01.744Z,98753.88
2023-05-15T13:41:28.518Z,98732.89
2023-05-15T13:43:55.647Z,98725.77
2023-05-15T13:46:22.367Z,98748.10
2023-05-15T13:48:49.116Z,98739.20
2023-05-15T13:51:15.808Z,98732.15
2023-05-15T13:53:42.512Z,98731.92
2023-05-15T13:56:09.217Z,98719.98
2023-05-15T13:58:36.458Z,98720.92
2023-05-15T14:01:05.864Z,98727.53
2023-05-15T14:03:32.894Z,98728.23
2023-05-15T14:05:59.930Z,98714.89
2023-05-15T14:08:29.418Z,98713.31
2023-05-15T14:10:56.123Z,98721.33
2023-05-15T14:13:23.645Z,98734.36
2023-05-15T14:15:50.544Z,98718.27
2023-05-15T14:18:17.242Z,98704.81
2023-05-15T14:20:43.940Z,98729.20
2023-05-15T14:23:10.730Z,98716.83
2023-05-15T14:25:37.426Z,98713.41
2023-05-15T14:28:04.115Z,98705.66
2023-05-15T14:30:30.912Z,98705.86
2023-05-15T14:32:57.749Z,98706.77
2023-05-15T14:35:24.623Z,98713.73
2023-05-15T14:37:51.454Z,98711.63
2023-05-15T14:40:18.231Z,98705.94
2023-05-15T14:42:44.921Z,98722.68
2023-05-15T14:45:11.771Z,98707.99
2023-05-15T14:47:38.533Z,98717.48
2023-05-15T14:50:06.187Z,98710.88
2023-05-15T14:52:32.955Z,98704.95
2023-05-15T14:55:08.610Z,98702.73
2023-05-15T14:57:36.478Z,98702.88
2023-05-15T15:00:04.735Z,98694.90
2023-05-15T15:02:31.701Z,98692.73
2023-05-15T15:04:58.606Z,98696.25
2023-05-15T15:07:28.857Z,98692.89
2023-05-15T15:09:55.560Z,98678.73
2023-05-15T15:12:22.433Z,98703.95
2023-05-15T15:14:49.120Z,98693.33
2023-05-15T15:17:15.856Z,98674.24
2023-05-15T15:19:42.710Z,98668.55
2023-05-15T15:22:09.431Z,98670.06
2023-05-15T15:24:36.112Z,98675.41
2023-05-15T15:27:02.867Z,98676.48
2023-05-15T15:29:29.551Z,98669.47
2023-05-15T15:31:56.283Z,98659.97
2023-05-15T15:34:23.004Z,98645.60
2023-05-15T15:36:49.684Z,98643.45
2023-05-15T15:39:16.550Z,98649.55
2023-05-15T15:41:43.240Z,98633.06
2023-05-15T15:44:09.921Z,98639.96
2023-05-15T15:46:36.630Z,98641.95
2023-05-15T15:49:04.638Z,98638.59
2023-05-15T15:51:33.244Z,98632.43
2023-05-15T15:53:59.952Z,98637.56
2023-05-15T15:56:27.050Z,98644.84
2023-05-15T15:58:53.749Z,98655.86
2023-05-15T16:01:21.530Z,98652.96
2023-05-15T16:03:48.382Z,98655.88
2023-05-15T16:06:15.121Z,98660.45
2023-05-15T16:08:41.893Z,98655.66
2023-05-15T16:11:08.765Z,98658.79
2023-05-15T16:13:35.432Z,98655.40
2023-05-15T16:16:02.138Z,98646.65
2023-05-15T16:18:28.916Z,98646.31
2023-05-15T16:20:55.872Z,98646.98
2023-05-15T16:23:22.773Z,98659.73
2023-05-15T16:25:49.476Z,98662.25
2023-05-15T16:28:16.239Z,98661.24
2023-05-15T16:33:12.610Z,98652.75
2023-05-15T16:35:39.405Z,98657.48
2023-05-15T16:38:06.106Z,98659.25
2023-05-15T16:40:32.885Z,98651.92
2023-05-15T16:42:59.737Z,98653.62
2023-05-15T16:45:26.801Z,98650.73
2023-05-15T16:47:54.113Z,98655.77
2023-05-15T16:50:20.873Z,98659.80
2023-05-15T16:52:48.271Z,98655.11
2023-05-15T16:55:16.024Z,98658.63
2023-05-15T16:57:43.645Z,98664.02
2023-05-15T17:00:11.039Z,98666.03
2023-05-15T17:02:38.146Z,98665.07
2023-05-15T17:05:05.960Z,98673.53
2023-05-15T17:07:33.835Z,98669.91
2023-05-15T17:10:00.679Z,98677.17
2023-05-15T17:12:27.564Z,98677.37
2023-05-15T17:14:54.353Z,98683.11
2023-05-15T17:17:21.237Z,98693.25
2023-05-15T17:19:48.018Z,98688.23
2023-05-15T17:22:14.966Z,98701.34
2023-05-15T17:24:50.805Z,98697.14
2023-05-15T17:27:18.817Z,98700.63
2023-05-15T17:29:45.673Z,98697.77
2023-05-15T17:32:12.617Z,98692.85
2023-05-15T17:34:39.567Z,98698.17
2023-05-15T17:37:06.374Z,98703.77
2023-05-15T17:39:33.116Z,98702.89
2023-05-15T17:42:00.181Z,98717.73
2023-05-15T17:44:29.692Z,98705.86
2023-05-15T17:46:59.917Z,98705.38
2023-05-15T17:49:26.817Z,98707.40
2023-05-15T17:51:53.879Z,98711.65
2023-05-15T17:54:20.780Z,98709.88
2023-05-15T17:56:48.033Z,98717.93
2023-05-15T17:59:14.903Z,98721.48
2023-05-15T18:01:41.930Z,98730.66
2023-05-15T18:04:09.071Z,98724.48
2023-05-15T18:06:36.267Z,98724.78
2023-05-15T18:09:03.328Z,98728.62
2023-05-15T18:11:30.086Z,98735.29
2023-05-15T18:13:56.939Z,98732.34
2023-05-15T18:16:23.868Z,98734.40
2023-05-15T18:18:52.171Z,98728.05
2023-05-15T18:21:19.206Z,98726.91
2023-05-15T18:23:46.103Z,98733.66
2023-05-15T18:26:12.841Z,98736.66
2023-05-15T18:28:39.648Z,98739.79
2023-05-15T18:31:06.593Z,98742.46
2023-05-15T18:33:33.777Z,98742.61
2023-05-15T18:36:00.674Z,98742.46
2023-05-15T18:38:27.500Z,98748.35
2023-05-15T18:40:54.191Z,98747.52
2023-05-15T18:43:21.571Z,98745.93
2023-05-15T18:45:48.618Z,98745.14
2023-05-15T18:48:15.950Z,98743.23
2023-05-15T18:50:43.373Z,98745.74
2023-05-15T18:53:10.201Z,98744.48
2023-05-15T18:55:36.985Z,98745.20
2023-05-15T18:58:03.808Z,98747.65
2023-05-15T19:03:00.463Z,98735.76
2023-05-15T19:05:27.713Z,98730.30
2023-05-15T19:07:54.548Z,98733.41
2023-05-15T19:10:21.415Z,98737.34
2023-05-15T19:12:48.583Z,98737.66
2023-05-15T19:15:20.168Z,98736.30
2023-05-15T19:17:48.347Z,98739.21
2023-05-15T19:20:15.287Z,98739.19
2023-05-15T19:22:42.606Z,98736.49
2023-05-15T19:25:10.927Z,98738.40
2023-05-15T19:27:37.899Z,98737.38
2023-05-15T19:30:07.651Z,98738.80
2023-05-15T19:32:34.686Z,98736.81
2023-05-15T19:35:01.745Z,98733.40
2023-05-15T19:37:28.508Z,98733.09
2023-05-15T19:39:55.418Z,98730.55
2023-05-15T19:42:22.537Z,98729.27
2023-05-15T19:44:49.679Z,98723.20
2023-05-15T19:47:16.433Z,98722.68
2023-05-15T19:49:43.136Z,98718.73
2023-05-15T19:52:09.829Z,98715.96
2023-05-15T19:54:36.609Z,98717.05
2023-05-15T19:57:03.410Z,98718.24
2023-05-15T19:59:30.161Z,98720.73
2023-05-15T20:01:57.046Z,98721.27
2023-05-15T20:04:23.815Z,98722.88
2023-05-15T20:06:50.629Z,98721.95
2023-05-15T20:09:17.424Z,98722.54
2023-05-15T20:11:45.278Z,98717.98
2023-05-15T20:14:12.920Z,98717.07
2023-05-15T20:16:39.672Z,98714.60
2023-05-15T20:19:06.572Z,98710.82
2023-05-15T20:21:33.865Z,98713.86
2023-05-15T20:24:00.629Z,98707.73
2023-05-15T20:26:27.538Z,98713.11
2023-05-15T20:28:54.245Z,98713.83
2023-05-15T20:31:21.001Z,98713.48
2023-05-15T20:33:47.941Z,98713.09
2023-05-15T20:36:16.697Z,98716.09
2023-05-15T20:38:44.899Z,98715.16
2023-05-15T20:41:11.687Z,98719.80
2023-05-15T20:43:39.130Z,98719.16
2023-05-15T20:46:09.060Z,98720.02
2023-05-15T20:48:36.489Z,98715.10
2023-05-15T20:51:03.355Z,98718.02
2023-05-15T20:53:30.159Z,98715.33
2023-05-15T20:55:56.930Z,98714.02
2023-05-15T20:58:23.846Z,98711.48
2023-05-15T21:00:50.662Z,98708.86
2023-05-15T21:03:17.584Z,98704.20
2023-05-15T21:05:44.755Z,98705.60
2023-05-15T21:08:11.488Z,98702.62
2023-05-15T21:10:38.184Z,98706.52
2023-05-15T21:13:05.145Z,98707.42
2023-05-15T21:15:31.914Z,98710.64
2023-05-15T21:17:58.985Z,98709.99
2023-05-15T21:20:27.103Z,98709.42
2023-05-15T21:22:54.132Z,98708.45
2023-05-15T21:25:20.850Z,98713.38
2023-05-15T21:27:47.730Z,98714.34
2023-05-15T21:30:14.938Z,98715.06
2023-05-15T21:32:41.698Z,98714.02
2023-05-15T21:35:08.899Z,98712.55
2023-05-15T21:37:35.623Z,98711.36
2023-05-15T21:40:02.523Z,98714.17
2023-05-15T21:42:34.075Z,98709.81
2023-05-15T21:45:00.886Z,98712.47
2023-05-15T21:47:27.731Z,98714.17
2023-05-15T21:49:54.479Z,98712.15
2023-05-15T21:52:21.656Z,98711.55
2023-05-15T21:54:48.388Z,98710.02
2023-05-15T21:57:15.137Z,98703.93
2023-05-15T21:59:41.910Z,98702.16
2023-05-15T22:02:08.777Z,98703.11
2023-05-15T22:04:35.668Z,98705.07
2023-05-15T22:07:02.503Z,98704.61
2023-05-15T22:09:29.282Z,98701.26
2023-05-15T22:11:56.316Z,98700.01
2023-05-15T22:14:23.088Z,98699.68
2023-05-15T22:16:49.877Z,98703.56
2023-05-15T22:19:31.619Z,98700.40
2023-05-15T22:21:59.584Z,98702.35
2023-05-15T22:24:26.709Z,98703.09
2023-05-15T22:26:53.409Z,98699.80
2023-05-15T22:29:20.105Z,98699.92
2023-05-15T22:31:46.814Z,98699.35
2023-05-15T22:34:13.796Z,98697.25
2023-05-15T22:36:41.177Z,98695.51
2023-05-15T22:39:08.149Z,98691.94
2023-05-15T22:41:34.870Z,98683.11
2023-05-15T22:44:02.383Z,98688.02
2023-05-15T22:46:29.290Z,98697.38
2023-05-15T22:48:59.032Z,98699.09
2023-05-15T22:51:26.035Z,98693.87
2023-05-15T22:53:52.854Z,98700.73
2023-05-15T22:56:19.591Z,98698.00
2023-05-15T22:58:46.389Z,98698.43
2023-05-15T23:01:13.917Z,98695.16
2023-05-15T23:03:40.816Z,98696.91
2023-05-15T23:06:07.744Z,98689.59
2023-05-15T23:08:34.419Z,98686.19
2023-05-15T23:11:01.331Z,98684.95
2023-05-15T23:13:28.080Z,98680.23
2023-05-15T23:15:54.913Z,98675.34
2023-05-15T23:18:21.693Z,98672.10
2023-05-15T23:20:48.396Z,98675.45
2023-05-15T23:23:15.293Z,98676.30
2023-05-15T23:25:42.004Z,98678.14
2023-05-15T23:28:08.745Z,98681.12
2023-05-15T23:30:35.648Z,98679.39
2023-05-15T23:33:02.452Z,98679.71
2023-05-15T23:35:29.161Z,98677.61
2023-05-15T23:37:55.900Z,98682.02
2023-05-15T23:40:22.630Z,98679.66
2023-05-15T23:42:49.373Z,98684.57
2023-05-15T23:45:16.184Z,98679.27
2023-05-15T23:47:42.944Z,98685.52
2023-05-15T23:50:09.865Z,98681.84
2023-05-15T23:52:36.618Z,98679.13
2023-05-15T23:55:03.480Z,98676.19
2023-05-15T23:57:30.469Z,98673.16
2023-05-15T23:59:57.186Z,98670.55
